createdAt,value
2023-01-30T00:00:43.552Z,19.08
2023-01-30T00:03:01.134Z,18.35
2023-01-30T00:05:18.016Z,18.77
2023-01-30T00:07:36.068Z,19.38
2023-01-30T00:09:53.533Z,19.30
2023-01-30T00:12:11.642Z,19.15
2023-01-30T00:14:28.641Z,19.40
2023-01-30T00:16:45.727Z,20.48
2023-01-30T00:19:03.055Z,19.25
2023-01-30T00:21:20.353Z,19.55
2023-01-30T00:23:40.172Z,20.05
2023-01-30T00:25:57.368Z,18.92
2023-01-30T00:28:15.720Z,18.77
2023-01-30T00:30:33.088Z,18.88
2023-01-30T00:32:51.290Z,18.52
2023-01-30T00:35:08.451Z,18.48
2023-01-30T00:37:28.107Z,18.85
2023-01-30T00:39:45.307Z,19.45
2023-01-30T00:42:02.430Z,18.92
2023-01-30T00:44:19.552Z,19.00
2023-01-30T00:46:38.707Z,20.02
2023-01-30T00:48:55.651Z,19.08
2023-01-30T00:51:12.765Z,19.48
2023-01-30T00:53:29.937Z,19.05
2023-01-30T00:55:46.930Z,18.65
2023-01-30T00:58:04.142Z,18.42
2023-01-30T01:00:21.426Z,19.20
2023-01-30T01:02:38.613Z,18.85
2023-01-30T01:04:56.026Z,17.88
2023-01-30T01:07:15.798Z,17.33
2023-01-30T01:09:32.885Z,17.35
2023-01-30T01:11:49.943Z,17.40
2023-01-30T01:14:07.040Z,16.17
2023-01-30T01:16:24.505Z,16.35
2023-01-30T01:18:42.814Z,15.93
2023-01-30T01:21:00.408Z,16.75
2023-01-30T01:23:18.782Z,16.17
2023-01-30T01:25:35.952Z,16.55
2023-01-30T01:27:53.751Z,17.45
2023-01-30T01:30:10.925Z,16.65
2023-01-30T01:32:29.281Z,15.70
2023-01-30T01:34:46.719Z,16.67
2023-01-30T01:37:04.057Z,15.30
2023-01-30T01:39:21.110Z,16.23
2023-01-30T01:41:38.246Z,15.23
2023-01-30T01:43:55.787Z,16.25
2023-01-30T01:46:12.956Z,16.88
2023-01-30T01:48:30.891Z,17.05
2023-01-30T01:50:49.015Z,16.80
2023-01-30T01:53:06.084Z,16.65
2023-01-30T01:55:23.415Z,16.77
2023-01-30T01:57:40.527Z,18.00
2023-01-30T01:59:58.829Z,17.73
2023-01-30T02:02:16.231Z,17.67
2023-01-30T02:04:36.052Z,18.48
2023-01-30T02:06:53.135Z,17.80
2023-01-30T02:09:10.538Z,17.80
2023-01-30T02:11:27.472Z,18.45
2023-01-30T02:13:44.408Z,17.63
2023-01-30T02:16:01.523Z,17.50
2023-01-30T02:18:18.917Z,18.23
2023-01-30T02:20:37.136Z,18.38
2023-01-30T02:22:54.253Z,17.63
2023-01-30T02:25:11.296Z,17.73
2023-01-30T02:27:28.626Z,16.25
2023-01-30T02:29:45.730Z,16.48
2023-01-30T02:32:02.874Z,15.32
2023-01-30T02:34:21.197Z,15.98
2023-01-30T02:36:38.433Z,15.93
2023-01-30T02:38:55.782Z,15.45
2023-01-30T02:41:12.927Z,14.82
2023-01-30T02:43:32.261Z,15.27
2023-01-30T02:45:49.289Z,16.00
2023-01-30T02:48:06.278Z,15.52
2023-01-30T02:50:23.297Z,15.95
2023-01-30T02:52:42.929Z,15.00
2023-01-30T02:55:00.157Z,15.70
2023-01-30T02:57:17.209Z,15.52
2023-01-30T02:59:34.830Z,15.38
2023-01-30T03:01:51.908Z,15.23
2023-01-30T03:04:09.124Z,15.85
2023-01-30T03:06:26.260Z,15.85
2023-01-30T03:08:43.492Z,16.17
2023-01-30T03:11:00.731Z,15.68
2023-01-30T03:13:18.007Z,14.68
2023-01-30T03:15:35.356Z,15.55
2023-01-30T03:17:52.667Z,15.43
2023-01-30T03:20:11.719Z,15.05
2023-01-30T03:22:28.710Z,17.10
2023-01-30T03:24:45.785Z,16.13
2023-01-30T03:27:03.119Z,15.90
2023-01-30T03:29:20.390Z,15.35
2023-01-30T03:31:37.728Z,15.40
2023-01-30T03:33:54.846Z,15.18
2023-01-30T03:36:12.779Z,15.40
2023-01-30T03:38:30.077Z,14.38
2023-01-30T03:40:47.353Z,14.30
2023-01-30T03:43:04.673Z,13.20
2023-01-30T03:45:21.708Z,14.30
2023-01-30T03:47:39.004Z,13.15
2023-01-30T03:49:56.012Z,14.05
2023-01-30T03:52:13.526Z,13.82
2023-01-30T03:54:30.575Z,13.20
2023-01-30T03:56:47.802Z,14.07
2023-01-30T03:59:05.118Z,14.50
2023-01-30T04:01:22.239Z,13.70
2023-01-30T04:03:39.297Z,14.00
2023-01-30T04:05:56.815Z,14.32
2023-01-30T04:08:15.121Z,15.13
2023-01-30T04:10:32.348Z,14.73
2023-01-30T04:12:50.453Z,15.27
2023-01-30T04:15:07.416Z,14.70
2023-01-30T04:17:26.470Z,15.27
2023-01-30T04:19:43.764Z,14.18
2023-01-30T04:22:00.832Z,14.85
2023-01-30T04:24:17.834Z,14.63
2023-01-30T04:26:36.033Z,14.88
2023-01-30T04:28:53.619Z,13.85
2023-01-30T04:31:13.022Z,14.75
2023-01-30T04:33:30.335Z,13.43
2023-01-30T04:35:47.370Z,14.98
2023-01-30T04:38:04.542Z,14.27
2023-01-30T04:40:21.765Z,13.85
2023-01-30T04:42:38.760Z,14.63
2023-01-30T04:44:55.783Z,15.50
2023-01-30T04:47:13.054Z,13.38
2023-01-30T04:49:30.326Z,13.95
2023-01-30T04:51:47.398Z,14.40
2023-01-30T04:54:04.690Z,14.23
2023-01-30T04:56:21.773Z,13.75
2023-01-30T04:58:38.992Z,14.70
2023-01-30T05:00:56.095Z,13.20
2023-01-30T05:03:13.549Z,12.93
2023-01-30T05:05:30.595Z,13.05
2023-01-30T05:07:47.600Z,12.48
2023-01-30T05:10:04.861Z,12.15
2023-01-30T05:12:22.108Z,11.45
2023-01-30T05:14:39.357Z,11.77
2023-01-30T05:16:56.444Z,11.05
2023-01-30T05:19:13.904Z,11.48
2023-01-30T05:21:31.847Z,10.23
2023-01-30T05:23:48.822Z,9.77
2023-01-30T05:26:06.886Z,9.98
2023-01-30T05:28:23.952Z,9.50
2023-01-30T05:30:42.241Z,9.68
2023-01-30T05:33:00.173Z,9.27
2023-01-30T05:35:18.756Z,9.30
2023-01-30T05:37:35.864Z,9.48
2023-01-30T05:39:53.872Z,8.43
2023-01-30T05:42:11.135Z,7.72
2023-01-30T05:44:28.423Z,7.07
2023-01-30T05:46:46.397Z,7.57
2023-01-30T05:49:04.621Z,7.60
2023-01-30T05:51:21.938Z,7.35
2023-01-30T05:53:39.020Z,7.85
2023-01-30T05:55:56.103Z,7.95
2023-01-30T05:58:13.059Z,8.40
2023-01-30T06:00:30.447Z,6.97
2023-01-30T06:02:48.760Z,7.25
2023-01-30T06:05:05.807Z,7.25
2023-01-30T06:07:23.872Z,7.82
2023-01-30T06:09:41.890Z,6.97
2023-01-30T06:11:58.868Z,8.07
2023-01-30T06:14:15.799Z,8.23
2023-01-30T06:16:32.883Z,7.88
2023-01-30T06:18:50.369Z,8.02
2023-01-30T06:21:07.405Z,8.07
2023-01-30T06:23:24.712Z,8.30
2023-01-30T06:25:41.783Z,8.50
2023-01-30T06:27:59.033Z,8.45
2023-01-30T06:30:16.068Z,9.25
2023-01-30T06:32:33.048Z,9.00
2023-01-30T06:34:51.153Z,8.65
2023-01-30T06:37:08.500Z,9.02
2023-01-30T06:39:25.764Z,8.15
2023-01-30T06:41:42.800Z,8.13
2023-01-30T06:44:00.998Z,8.30
2023-01-30T06:46:18.335Z,7.82
2023-01-30T06:48:35.801Z,8.07
2023-01-30T06:50:53.141Z,7.25
2023-01-30T06:53:10.528Z,7.63
2023-01-30T06:55:27.702Z,7.68
2023-01-30T06:57:44.977Z,7.18
2023-01-30T07:00:02.300Z,6.70
2023-01-30T07:02:19.362Z,7.28
2023-01-30T07:04:36.653Z,6.70
2023-01-30T07:06:54.012Z,6.72
2023-01-30T07:09:11.040Z,6.47
2023-01-30T07:11:28.349Z,5.95
2023-01-30T07:13:45.448Z,6.15
2023-01-30T07:16:02.513Z,6.22
2023-01-30T07:18:19.447Z,6.50
2023-01-30T07:20:36.520Z,6.38
2023-01-30T07:22:53.928Z,5.63
2023-01-30T07:25:11.222Z,5.90
2023-01-30T07:27:28.541Z,5.85
2023-01-30T07:29:45.523Z,6.47
2023-01-30T07:32:02.878Z,5.65
2023-01-30T07:34:19.921Z,5.53
2023-01-30T07:36:36.963Z,5.32
2023-01-30T07:38:53.873Z,5.25
2023-01-30T07:41:11.109Z,4.82
2023-01-30T07:43:28.042Z,5.22
2023-01-30T07:45:45.124Z,4.82
2023-01-30T07:48:02.014Z,4.45
2023-01-30T07:50:19.404Z,4.65
2023-01-30T07:52:36.574Z,4.35
2023-01-30T07:54:54.888Z,4.38
2023-01-30T07:57:12.179Z,4.10
2023-01-30T07:59:29.283Z,3.83
2023-01-30T08:01:46.515Z,4.00
2023-01-30T08:04:03.605Z,3.45
2023-01-30T08:06:20.898Z,3.90
2023-01-30T08:08:37.957Z,3.60
2023-01-30T08:10:54.966Z,3.15
2023-01-30T08:13:12.081Z,3.80
2023-01-30T08:15:29.094Z,4.38
2023-01-30T08:17:46.367Z,3.10
2023-01-30T08:20:03.654Z,3.00
2023-01-30T08:22:20.944Z,3.00
2023-01-30T08:24:38.002Z,3.28
2023-01-30T08:26:55.077Z,3.38
2023-01-30T08:29:12.292Z,2.90
2023-01-30T08:31:30.307Z,3.03
2023-01-30T08:33:47.313Z,2.97
2023-01-30T08:36:04.391Z,3.17
2023-01-30T08:38:21.423Z,2.75
2023-01-30T08:40:38.689Z,3.08
2023-01-30T08:42:56.907Z,2.67
2023-01-30T08:45:13.806Z,2.70
2023-01-30T08:47:30.833Z,2.50
2023-01-30T08:49:47.857Z,2.42
2023-01-30T08:52:04.896Z,3.20
2023-01-30T08:54:21.974Z,3.00
2023-01-30T08:56:38.967Z,2.47
2023-01-30T08:58:55.919Z,2.53
2023-01-30T09:01:12.888Z,2.35
2023-01-30T09:03:30.924Z,2.58
2023-01-30T09:05:47.865Z,2.50
2023-01-30T09:08:04.747Z,2.60
2023-01-30T09:10:21.895Z,2.50
2023-01-30T09:12:38.996Z,2.35
2023-01-30T09:14:56.008Z,2.70
2023-01-30T09:17:15.443Z,2.78
2023-01-30T09:19:32.474Z,3.17
2023-01-30T09:21:50.765Z,2.65
2023-01-30T09:24:08.967Z,2.20
2023-01-30T09:26:26.922Z,2.10
2023-01-30T09:28:43.779Z,1.95
2023-01-30T09:31:00.878Z,9.02
2023-01-30T09:33:17.977Z,3.22
2023-01-30T09:35:35.861Z,5.25
2023-01-30T09:37:52.859Z,7.20
2023-01-30T09:40:09.849Z,9.13
2023-01-30T09:42:26.883Z,12.45
2023-01-30T09:44:44.174Z,4.82
2023-01-30T09:47:01.155Z,3.78
2023-01-30T09:49:18.384Z,2.92
2023-01-30T09:51:36.645Z,2.50
2023-01-30T09:53:53.661Z,2.50
2023-01-30T09:56:10.890Z,2.10
2023-01-30T09:58:28.290Z,2.40
2023-01-30T10:00:46.566Z,2.20
2023-01-30T10:03:03.572Z,2.35
2023-01-30T10:05:20.631Z,2.53
2023-01-30T10:07:37.696Z,2.40
2023-01-30T10:09:54.750Z,2.15
2023-01-30T10:12:11.776Z,3.10
2023-01-30T10:14:28.876Z,3.10
2023-01-30T10:16:46.178Z,2.75
2023-01-30T10:19:03.083Z,2.90
2023-01-30T10:21:20.000Z,2.42
2023-01-30T10:23:37.059Z,2.63
2023-01-30T10:25:54.294Z,2.78
2023-01-30T10:28:11.316Z,3.72
2023-01-30T10:30:28.723Z,4.63
2023-01-30T10:32:46.023Z,7.18
2023-01-30T10:35:03.031Z,6.78
2023-01-30T10:37:20.068Z,4.40
2023-01-30T10:39:40.842Z,3.50
2023-01-30T10:42:03.715Z,4.72
2023-01-30T10:44:20.747Z,4.30
2023-01-30T10:46:37.849Z,2.80
2023-01-30T10:48:56.504Z,4.40
2023-01-30T10:51:13.551Z,4.80
2023-01-30T10:53:31.591Z,4.13
2023-01-30T10:55:48.835Z,3.08
2023-01-30T10:58:06.036Z,2.75
2023-01-30T11:00:22.969Z,3.53
2023-01-30T11:02:40.097Z,3.70
2023-01-30T11:04:57.375Z,2.90
2023-01-30T11:07:15.607Z,2.95
2023-01-30T11:09:32.579Z,2.78
2023-01-30T11:11:50.823Z,2.80
2023-01-30T11:14:07.818Z,3.67
2023-01-30T11:16:25.126Z,4.30
2023-01-30T11:19:18.216Z,3.30
2023-01-30T11:21:19.397Z,5.00
2023-01-30T11:23:36.395Z,4.78
2023-01-30T11:26:10.150Z,3.15
2023-01-30T11:28:28.561Z,2.95
2023-01-30T11:30:46.937Z,3.25
2023-01-30T11:33:04.953Z,3.92
2023-01-30T11:35:22.091Z,3.25
2023-01-30T11:37:39.031Z,2.55
2023-01-30T11:39:56.387Z,2.13
2023-01-30T11:42:13.671Z,7.60
2023-01-30T11:44:30.674Z,4.57
2023-01-30T11:46:47.976Z,7.15
2023-01-30T11:51:31.644Z,4.85
2023-01-30T11:51:42.155Z,4.10
2023-01-30T11:53:59.401Z,3.72
2023-01-30T11:56:16.688Z,3.00
2023-01-30T11:58:33.943Z,5.05
2023-01-30T12:00:51.195Z,6.28
2023-01-30T12:03:08.166Z,5.18
2023-01-30T12:05:25.586Z,4.30
2023-01-30T12:07:42.456Z,4.80
2023-01-30T12:09:59.485Z,3.63
2023-01-30T12:12:16.558Z,3.28
2023-01-30T12:14:33.490Z,3.22
2023-01-30T12:16:50.591Z,4.07
2023-01-30T12:19:08.591Z,4.57
2023-01-30T12:21:25.829Z,4.68
2023-01-30T12:23:43.133Z,3.60
2023-01-30T12:26:00.442Z,6.50
2023-01-30T12:28:17.484Z,3.53
2023-01-30T12:30:34.440Z,6.10
2023-01-30T12:32:51.708Z,3.33
2023-01-30T12:35:08.680Z,8.50
2023-01-30T12:37:25.721Z,4.95
2023-01-30T12:39:42.785Z,4.28
2023-01-30T12:41:59.988Z,6.97
2023-01-30T12:44:17.095Z,6.78
2023-01-30T12:46:34.213Z,2.95
2023-01-30T12:49:07.649Z,3.00
2023-01-30T12:51:25.402Z,2.70
2023-01-30T12:53:42.447Z,9.80
2023-01-30T12:55:59.414Z,5.22
2023-01-30T12:58:16.448Z,5.03
2023-01-30T13:00:33.687Z,3.45
2023-01-30T13:02:51.677Z,10.80
2023-01-30T13:05:08.804Z,12.45
2023-01-30T13:07:26.746Z,10.73
2023-01-30T13:09:43.760Z,8.60
2023-01-30T13:12:01.800Z,6.82
2023-01-30T13:14:18.834Z,6.75
2023-01-30T13:16:36.162Z,3.17
2023-01-30T13:18:53.459Z,3.35
2023-01-30T13:21:10.405Z,2.72
2023-01-30T13:23:27.447Z,2.83
2023-01-30T13:25:44.647Z,2.60
2023-01-30T13:28:01.712Z,2.80
2023-01-30T13:30:19.134Z,2.58
2023-01-30T13:32:36.360Z,2.72
2023-01-30T13:34:53.597Z,2.53
2023-01-30T13:37:10.928Z,2.92
2023-01-30T13:39:27.996Z,2.33
2023-01-30T13:41:45.081Z,2.47
2023-01-30T13:44:03.899Z,3.03
2023-01-30T13:46:21.030Z,4.00
2023-01-30T13:48:39.391Z,14.57
2023-01-30T13:50:56.736Z,12.77
2023-01-30T13:53:14.097Z,7.28
2023-01-30T13:55:31.335Z,5.38
2023-01-30T13:57:48.295Z,3.30
2023-01-30T14:00:05.370Z,3.50
2023-01-30T14:02:22.542Z,6.10
2023-01-30T14:04:40.872Z,4.75
2023-01-30T14:06:57.968Z,5.07
2023-01-30T14:09:14.967Z,4.75
2023-01-30T14:11:34.110Z,7.55
2023-01-30T14:13:51.640Z,10.85
2023-01-30T14:16:08.790Z,6.60
2023-01-30T14:18:25.816Z,5.80
2023-01-30T14:20:42.815Z,4.40
2023-01-30T14:23:00.124Z,3.78
2023-01-30T14:25:17.401Z,3.28
2023-01-30T14:27:34.703Z,3.75
2023-01-30T14:29:51.894Z,4.00
2023-01-30T14:32:08.986Z,4.13
2023-01-30T14:34:26.398Z,5.68
2023-01-30T14:36:43.691Z,5.35
2023-01-30T14:39:00.997Z,13.77
2023-01-30T14:41:18.869Z,8.68
2023-01-30T14:43:35.929Z,12.23
2023-01-30T14:45:53.178Z,6.95
2023-01-30T14:48:10.239Z,7.47
2023-01-30T14:50:27.447Z,8.15
2023-01-30T14:52:44.774Z,4.88
2023-01-30T14:55:02.072Z,4.70
2023-01-30T14:57:19.330Z,4.45
2023-01-30T14:59:36.369Z,3.92
2023-01-30T15:01:53.469Z,3.70
2023-01-30T15:04:10.908Z,5.85
2023-01-30T15:06:28.169Z,6.25
2023-01-30T15:08:46.460Z,8.10
2023-01-30T15:11:03.545Z,4.53
2023-01-30T15:13:20.585Z,8.15
2023-01-30T15:15:37.520Z,8.27
2023-01-30T15:18:06.967Z,6.57
2023-01-30T15:20:26.504Z,6.47
2023-01-30T15:22:44.445Z,5.60
2023-01-30T15:25:01.358Z,5.20
2023-01-30T15:27:18.426Z,5.43
2023-01-30T15:29:36.794Z,11.25
2023-01-30T15:31:54.149Z,11.45
2023-01-30T15:34:12.235Z,13.88
2023-01-30T15:36:29.568Z,8.25
2023-01-30T15:38:46.856Z,5.32
2023-01-30T15:41:03.845Z,4.18
2023-01-30T15:43:20.782Z,4.75
2023-01-30T15:45:37.832Z,4.25
2023-01-30T15:47:55.130Z,4.63
2023-01-30T15:50:13.104Z,5.60
2023-01-30T15:52:30.135Z,5.07
2023-01-30T15:54:49.545Z,7.03
2023-01-30T15:57:06.901Z,5.53
2023-01-30T15:59:23.924Z,5.97
2023-01-30T16:01:41.196Z,7.75
2023-01-30T16:03:58.437Z,5.82
2023-01-30T16:06:15.782Z,4.68
2023-01-30T16:08:32.789Z,3.92
2023-01-30T16:10:50.100Z,3.80
2023-01-30T16:13:07.395Z,4.22
2023-01-30T16:15:24.842Z,3.53
2023-01-30T16:17:41.740Z,4.70
2023-01-30T16:19:59.167Z,4.10
2023-01-30T16:22:16.553Z,5.03
2023-01-30T16:24:34.122Z,4.28
2023-01-30T16:26:51.119Z,2.97
2023-01-30T16:29:09.286Z,3.25
2023-01-30T16:31:26.878Z,4.05
2023-01-30T16:33:43.916Z,4.97
2023-01-30T16:36:01.042Z,4.55
2023-01-30T16:38:20.854Z,4.55
2023-01-30T16:40:38.267Z,3.38
2023-01-30T16:42:55.295Z,2.85
2023-01-30T16:45:13.446Z,3.15
2023-01-30T16:47:34.637Z,3.33
2023-01-30T16:49:52.965Z,3.20
2023-01-30T16:52:10.383Z,2.88
2023-01-30T16:54:27.890Z,4.07
2023-01-30T16:56:44.855Z,3.47
2023-01-30T16:59:01.863Z,3.42
2023-01-30T17:01:19.353Z,3.22
2023-01-30T17:03:36.516Z,3.90
2023-01-30T17:05:53.872Z,4.03
2023-01-30T17:08:10.944Z,4.25
2023-01-30T17:10:28.043Z,4.28
2023-01-30T17:12:45.288Z,4.50
2023-01-30T17:15:03.372Z,4.05
2023-01-30T17:17:20.311Z,3.78
2023-01-30T17:19:38.621Z,4.68
2023-01-30T17:21:55.907Z,4.93
2023-01-30T17:24:12.916Z,4.88
2023-01-30T17:26:30.894Z,4.55
2023-01-30T17:28:47.975Z,4.07
2023-01-30T17:31:05.066Z,4.70
2023-01-30T17:33:22.460Z,4.32
2023-01-30T17:35:39.536Z,4.53
2023-01-30T17:38:05.398Z,4.30
2023-01-30T17:40:23.396Z,4.88
2023-01-30T17:42:40.542Z,5.72
2023-01-30T17:44:58.585Z,5.32
2023-01-30T17:47:15.950Z,4.60
2023-01-30T17:49:33.171Z,3.88
2023-01-30T17:51:50.169Z,3.33
2023-01-30T17:54:07.207Z,3.50
2023-01-30T17:56:24.280Z,3.45
2023-01-30T17:58:42.316Z,3.55
2023-01-30T18:00:59.689Z,3.17
2023-01-30T18:03:16.665Z,3.67
2023-01-30T18:05:33.797Z,3.35
2023-01-30T18:07:50.900Z,4.53
2023-01-30T18:10:08.144Z,4.88
2023-01-30T18:12:26.195Z,6.65
2023-01-30T18:14:43.338Z,5.60
2023-01-30T18:17:00.806Z,4.80
2023-01-30T18:19:17.747Z,5.15
2023-01-30T18:21:34.689Z,5.45
2023-01-30T18:23:51.770Z,4.45
2023-01-30T18:26:08.652Z,4.22
2023-01-30T18:28:25.691Z,4.13
2023-01-30T18:30:42.974Z,4.15
2023-01-30T18:33:00.321Z,3.90
2023-01-30T18:35:18.669Z,3.95
2023-01-30T18:37:36.017Z,3.78
2023-01-30T18:39:53.346Z,4.13
2023-01-30T18:42:10.491Z,3.22
2023-01-30T18:44:27.779Z,3.20
2023-01-30T18:46:44.851Z,3.53
2023-01-30T18:49:01.929Z,3.50
2023-01-30T18:51:19.301Z,3.08
2023-01-30T18:53:36.647Z,3.22
2023-01-30T18:55:53.727Z,4.82
2023-01-30T18:58:10.732Z,3.78
2023-01-30T19:00:29.038Z,4.40
2023-01-30T19:02:46.488Z,4.03
2023-01-30T19:05:03.884Z,4.03
2023-01-30T19:07:21.235Z,4.07
2023-01-30T19:09:39.249Z,3.50
2023-01-30T19:11:56.260Z,3.35
2023-01-30T19:14:13.208Z,3.30
2023-01-30T19:16:30.274Z,3.58
2023-01-30T19:18:47.411Z,3.30
2023-01-30T19:21:04.373Z,3.58
2023-01-30T19:23:21.400Z,3.13
2023-01-30T19:25:38.707Z,3.90
2023-01-30T19:27:56.864Z,3.50
2023-01-30T19:30:14.985Z,3.63
2023-01-30T19:32:32.410Z,5.47
2023-01-30T19:34:50.810Z,3.83
2023-01-30T19:37:08.144Z,6.45
2023-01-30T19:39:25.122Z,7.93
2023-01-30T19:41:43.415Z,5.10
2023-01-30T19:44:00.719Z,5.80
2023-01-30T19:46:17.842Z,4.63
2023-01-30T19:48:35.129Z,4.25
2023-01-30T19:50:52.409Z,4.57
2023-01-30T19:53:09.743Z,4.47
2023-01-30T19:55:27.663Z,5.95
2023-01-30T19:57:44.931Z,5.18
2023-01-30T20:00:02.879Z,4.07
2023-01-30T20:02:19.957Z,4.72
2023-01-30T20:04:37.212Z,4.47
2023-01-30T20:06:54.228Z,3.38
2023-01-30T20:09:11.542Z,3.83
2023-01-30T20:11:28.855Z,3.70
2023-01-30T20:13:46.156Z,4.03
2023-01-30T20:16:06.390Z,3.35
2023-01-30T20:18:23.772Z,3.95
2023-01-30T20:20:41.848Z,4.20
2023-01-30T20:22:58.831Z,3.85
2023-01-30T20:25:16.104Z,3.88
2023-01-30T20:27:33.324Z,3.70
2023-01-30T20:29:50.297Z,4.65
2023-01-30T20:32:07.500Z,3.70
2023-01-30T20:34:24.647Z,4.45
2023-01-30T20:36:41.759Z,5.45
2023-01-30T20:38:58.859Z,6.82
2023-01-30T20:41:15.902Z,6.60
2023-01-30T20:43:33.193Z,5.22
2023-01-30T20:45:51.217Z,4.40
2023-01-30T20:48:08.267Z,3.70
2023-01-30T20:50:26.326Z,4.45
2023-01-30T20:52:43.668Z,4.30
2023-01-30T20:55:00.812Z,4.30
2023-01-30T20:57:17.833Z,3.42
2023-01-30T20:59:35.226Z,4.30
2023-01-30T21:01:52.558Z,4.55
2023-01-30T21:04:09.715Z,3.65
2023-01-30T21:06:41.699Z,4.85
2023-01-30T21:09:02.491Z,3.80
2023-01-30T21:11:19.797Z,4.18
2023-01-30T21:13:37.015Z,3.60
2023-01-30T21:15:54.078Z,3.50
2023-01-30T21:18:11.374Z,3.42
2023-01-30T21:20:28.303Z,3.05
2023-01-30T21:22:45.669Z,3.65
2023-01-30T21:25:02.591Z,3.08
2023-01-30T21:27:19.922Z,2.85
2023-01-30T21:29:37.261Z,3.15
2023-01-30T21:31:55.568Z,3.38
2023-01-30T21:34:12.750Z,3.42
2023-01-30T21:36:29.824Z,3.20
2023-01-30T21:38:46.749Z,3.80
2023-01-30T21:41:04.085Z,3.45
2023-01-30T21:43:21.167Z,3.38
2023-01-30T21:45:39.081Z,3.28
2023-01-30T21:47:56.794Z,3.50
2023-01-30T21:50:13.767Z,4.00
2023-01-30T21:52:30.862Z,3.90
2023-01-30T21:54:47.887Z,3.95
2023-01-30T21:57:05.231Z,3.10
2023-01-30T21:59:22.216Z,3.50
2023-01-30T22:01:39.366Z,3.55
2023-01-30T22:03:56.615Z,3.47
2023-01-30T22:06:13.721Z,3.63
2023-01-30T22:08:30.705Z,3.90
2023-01-30T22:10:48.816Z,3.50
2023-01-30T22:13:06.230Z,3.15
2023-01-30T22:15:23.156Z,3.13
2023-01-30T22:17:40.137Z,3.30
2023-01-30T22:19:57.193Z,3.63
2023-01-30T22:22:14.508Z,3.58
2023-01-30T22:24:31.604Z,3.58
2023-01-30T22:26:48.676Z,3.30
2023-01-30T22:29:06.616Z,3.45
2023-01-30T22:31:23.873Z,3.35
2023-01-30T22:33:41.043Z,3.78
2023-01-30T22:35:58.108Z,3.50
2023-01-30T22:38:15.449Z,3.40
2023-01-30T22:40:32.782Z,3.53
2023-01-30T22:42:50.143Z,3.72
2023-01-30T22:45:07.148Z,3.53
2023-01-30T22:47:24.372Z,3.78
2023-01-30T22:49:41.421Z,3.15
2023-01-30T22:51:58.483Z,3.25
2023-01-30T22:54:15.803Z,3.65
2023-01-30T22:56:32.873Z,4.72
2023-01-30T22:58:50.246Z,3.45
2023-01-30T23:01:07.572Z,3.70
2023-01-30T23:03:24.681Z,3.83
2023-01-30T23:05:41.731Z,3.75
2023-01-30T23:07:58.819Z,4.20
2023-01-30T23:10:17.113Z,3.25
2023-01-30T23:12:34.440Z,3.70
2023-01-30T23:14:51.643Z,3.70
2023-01-30T23:17:08.923Z,3.65
2023-01-30T23:19:25.995Z,3.13
2023-01-30T23:21:43.308Z,3.65
2023-01-30T23:24:00.334Z,3.55
2023-01-30T23:26:17.344Z,3.42
2023-01-30T23:28:35.457Z,3.60
2023-01-30T23:30:52.485Z,4.13
2023-01-30T23:33:09.816Z,3.42
2023-01-30T23:35:26.928Z,3.35
2023-01-30T23:37:43.852Z,3.60
2023-01-30T23:40:02.184Z,3.58
2023-01-30T23:42:19.607Z,3.45
2023-01-30T23:44:37.572Z,3.35
2023-01-30T23:46:54.634Z,3.80
2023-01-30T23:49:11.630Z,3.60
2023-01-30T23:51:28.798Z,3.05
2023-01-30T23:53:45.943Z,3.78
2023-01-30T23:56:02.963Z,4.30
2023-01-30T23:58:20.422Z,3.60
